Time;durP1;ratioP1;P1;durP2;ratioP2;P2;SDS_P1;SDS_P2;PMS_P1;PMS_P2;Temp;Humidity;BMP_temperature;BMP_pressure;BME280_temperature;BME280_humidity;BME280_pressure;Samples;Min_cycle;Max_cycle;Signal;HPM_P1;HPM_P2
2022/09/07 00:03:07;;;;;;;7.75;5.43;;;;;;;21.21;55.80;100024.59;10219646;29;20055;-79
2022/09/07 00:08:11;;;;;;;7.65;5.13;;;;;;;21.43;55.58;100028.06;10213043;28;20063;-79
2022/09/07 00:13:14;;;;;;;6.05;5.15;;;;;;;21.51;55.33;100037.13;10207788;29;20058;-78
2022/09/07 00:18:18;;;;;;;6.03;5.53;;;;;;;21.47;55.28;100031.22;10206567;29;20058;-79
2022/09/07 00:23:21;;;;;;;7.18;5.80;;;;;;;21.40;55.39;100031.22;10198266;29;20059;-78
2022/09/07 00:28:24;;;;;;;7.72;5.22;;;;;;;21.34;55.85;100023.00;10186324;29;20047;-79
2022/09/07 00:33:29;;;;;;;7.00;5.53;;;;;;;21.41;55.50;100019.22;10212500;29;20142;-79
2022/09/07 00:38:31;;;;;;;11.40;6.00;;;;;;;21.42;55.76;100015.47;10210202;29;20051;-79
2022/09/07 00:43:37;;;;;;;6.55;5.55;;;;;;;21.30;55.80;100017.06;10196504;29;20106;-79
2022/09/07 00:48:47;;;;;;;5.50;5.00;;;;;;;21.29;56.26;99998.19;10201858;29;20055;-79
2022/09/07 00:53:54;;;;;;;6.20;5.57;;;;;;;21.14;56.24;100001.88;10208967;28;20461;-79
2022/09/07 00:58:57;;;;;;;5.57;5.07;;;;;;;21.15;56.74;99998.13;10203809;29;20055;-78
2022/09/07 01:04:03;;;;;;;7.25;5.20;;;;;;;21.30;56.23;99981.56;10199896;29;20052;-79
2022/09/07 01:09:09;;;;;;;5.53;5.07;;;;;;;21.23;56.32;99987.00;10203308;29;20051;-79
2022/09/07 01:14:15;;;;;;;6.75;5.63;;;;;;;21.13;56.74;100002.09;10210867;29;20052;-79
2022/09/07 01:20:01;;;;;;;6.15;5.60;;;;;;;21.14;56.98;99993.69;10198255;28;21199;-80
2022/09/07 01:25:10;;;;;;;6.40;5.20;;;;;;;21.08;57.04;100012.78;10187274;29;20055;-78
2022/09/07 01:30:17;;;;;;;5.80;5.32;;;;;;;21.00;57.48;100008.28;10201856;29;21506;-79
2022/09/07 01:35:28;;;;;;;6.05;5.45;;;;;;;21.14;57.26;100028.34;10182506;29;20083;-79
2022/09/07 01:40:41;;;;;;;5.60;5.10;;;;;;;20.29;59.67;100104.69;10184436;29;20055;-78
2022/09/07 01:45:48;;;;;;;6.40;5.50;;;;;;;20.19;60.77;100130.63;10227612;28;20070;-79
2022/09/07 01:50:55;;;;;;;6.85;6.22;;;;;;;19.32;65.44;100180.41;10210984;29;20102;-79
2022/09/07 01:56:02;;;;;;;7.80;6.72;;;;;;;19.05;68.12;100176.41;10234778;29;20039;-79
2022/09/07 02:01:10;;;;;;;13.18;7.00;;;;;;;17.43;78.68;100180.75;10206172;29;20533;-81
2022/09/07 02:06:18;;;;;;;6.28;4.88;;;;;;;16.72;86.62;100179.63;10180496;29;20055;-80
2022/09/07 02:11:25;;;;;;;6.40;5.05;;;;;;;16.46;87.46;100171.66;10174828;29;20052;-81
2022/09/07 02:16:32;;;;;;;6.53;3.80;;;;;;;16.93;86.84;100160.97;10188423;29;20059;-81
2022/09/07 02:21:38;;;;;;;6.38;4.60;;;;;;;17.35;87.87;100137.34;10200679;29;20059;-80
2022/09/07 02:26:45;;;;;;;5.80;4.40;;;;;;;17.61;88.45;100128.94;10180222;29;20062;-81
2022/09/07 02:31:50;;;;;;;5.53;4.22;;;;;;;17.63;87.58;100135.03;10190858;28;20059;-80
2022/09/07 02:36:54;;;;;;;6.30;5.57;;;;;;;17.73;87.54;100140.25;10200391;29;20058;-80
2022/09/07 02:41:57;;;;;;;5.07;4.43;;;;;;;17.68;85.80;100159.78;10196739;29;20048;-80
2022/09/07 02:47:19;;;;;;;5.32;4.55;;;;;;;17.11;81.80;100192.47;10179841;29;20054;-80
2022/09/07 02:52:30;;;;;;;5.65;4.03;;;;;;;17.22;80.36;100184.88;10202654;29;20051;-80
2022/09/07 02:57:42;;;;;;;7.22;3.58;;;;;;;17.09;77.31;100159.28;10194461;29;20051;-80
2022/09/07 03:02:54;;;;;;;6.25;4.20;;;;;;;17.54;76.42;100147.78;10197595;29;20694;-80
2022/09/07 03:08:03;;;;;;;5.75;4.40;;;;;;;17.63;76.52;100145.88;10185695;29;20071;-79
2022/09/07 03:13:06;;;;;;;7.22;4.20;;;;;;;17.64;75.88;100156.59;10237157;29;20055;-79
2022/09/07 03:18:11;;;;;;;5.50;4.00;;;;;;;17.72;75.69;100150.28;10203955;29;20440;-80
2022/09/07 03:23:14;;;;;;;8.13;4.00;;;;;;;17.85;75.60;100136.09;10214679;29;21254;-79
2022/09/07 03:28:17;;;;;;;4.88;4.38;;;;;;;17.84;75.89;100148.84;10197543;29;20062;-80
2022/09/07 03:33:21;;;;;;;7.32;3.72;;;;;;;17.85;75.30;100131.53;10222562;29;20055;-80
2022/09/07 03:38:24;;;;;;;9.60;3.55;;;;;;;17.88;75.88;100116.72;10211507;29;20043;-80
2022/09/07 03:43:28;;;;;;;4.90;4.40;;;;;;;17.54;81.98;100096.19;10200492;29;20110;-82
2022/09/07 03:48:34;;;;;;;9.10;5.18;;;;;;;17.45;86.49;100060.09;10190363;29;21630;-81
2022/09/07 03:53:39;;;;;;;10.93;6.15;;;;;;;17.43;87.31;100029.56;10217415;29;20421;-80
2022/09/07 03:58:42;;;;;;;5.55;5.00;;;;;;;17.24;87.56;100033.53;10186186;29;20102;-79
2022/09/07 04:03:47;;;;;;;10.52;6.85;;;;;;;17.16;87.62;100046.31;10193670;28;22701;-80
2022/09/07 04:08:49;;;;;;;9.13;7.15;;;;;;;17.15;89.14;100031.06;10203244;29;20059;-81
2022/09/07 04:13:52;;;;;;;9.52;6.88;;;;;;;16.94;88.62;100037.03;10196778;29;20686;-81
2022/09/07 04:18:57;;;;;;;13.10;7.28;;;;;;;16.98;88.54;100050.06;10203578;29;20039;-81
2022/09/07 04:24:01;;;;;;;9.30;6.32;;;;;;;16.92;88.76;100053.50;10202605;29;21433;-80
2022/09/07 04:29:05;;;;;;;7.80;6.95;;;;;;;17.00;88.94;100082.44;10213178;29;21288;-80
2022/09/07 04:34:10;;;;;;;11.65;7.57;;;;;;;16.65;87.76;100068.28;10231642;28;20410;-80
2022/09/07 04:39:13;;;;;;;10.27;7.35;;;;;;;16.65;88.16;100056.56;10213248;29;20057;-80
2022/09/07 04:44:16;;;;;;;10.98;7.80;;;;;;;16.75;87.74;100076.22;10194484;29;20698;-81
2022/09/07 04:49:20;;;;;;;14.02;7.25;;;;;;;16.83;87.54;100078.09;10192197;29;20047;-79
2022/09/07 04:54:25;;;;;;;12.05;6.80;;;;;;;16.86;85.98;100067.72;10205498;29;20051;-79
2022/09/07 04:59:28;;;;;;;10.85;6.00;;;;;;;17.03;85.78;100054.94;10216681;29;20051;-80
2022/09/07 05:04:34;;;;;;;10.90;7.15;;;;;;;17.10;85.34;100052.41;10205553;29;20059;-80
2022/09/07 05:09:37;;;;;;;11.00;6.97;;;;;;;17.14;86.06;100040.19;10185224;29;20106;-81
2022/09/07 05:14:40;;;;;;;11.23;6.45;;;;;;;17.20;86.94;100037.66;10186939;29;20055;-79
2022/09/07 05:19:44;;;;;;;8.32;6.28;;;;;;;17.34;87.10;100027.91;10177267;29;20653;-80
2022/09/07 05:24:47;;;;;;;9.82;7.13;;;;;;;17.31;86.19;100020.13;10200042;28;20691;-81
2022/09/07 05:29:51;;;;;;;10.93;8.23;;;;;;;17.41;86.51;100003.59;10183143;29;20063;-79
2022/09/07 05:35:11;;;;;;;11.85;7.72;;;;;;;17.46;86.07;100003.91;10182216;29;20645;-80
2022/09/07 05:40:15;;;;;;;8.40;5.57;;;;;;;17.70;85.91;100016.50;10181308;29;20048;-81
2022/09/07 05:45:18;;;;;;;7.10;4.80;;;;;;;17.84;84.75;100021.16;10193391;29;20536;-79
2022/09/07 05:50:22;;;;;;;7.05;4.80;;;;;;;17.89;83.37;100026.91;10181737;29;20157;-78
2022/09/07 05:55:25;;;;;;;10.43;4.85;;;;;;;17.97;82.98;100028.75;10171368;29;20043;-79
2022/09/07 06:00:32;;;;;;;12.50;5.50;;;;;;;18.07;82.17;100037.50;10207832;29;20079;-78
2022/09/07 06:05:37;;;;;;;6.13;3.97;;;;;;;;;;10226310;28;20066;-78
2022/09/07 06:10:39;;;;;;;9.82;4.78;;;;;;;18.27;82.00;100037.84;10201499;28;20505;-76
2022/09/07 06:15:48;;;;;;;6.70;5.35;;;;;;;18.45;81.23;100047.53;10199287;28;20043;-78
2022/09/07 06:20:52;;;;;;;7.82;4.53;;;;;;;18.54;80.81;100047.28;10198725;29;20054;-77
2022/09/07 06:25:55;;;;;;;6.90;4.28;;;;;;;18.79;81.11;100053.38;10199070;29;20051;-77
2022/09/07 06:31:01;;;;;;;10.73;4.97;;;;;;;18.87;78.70;100057.88;10215942;29;20076;-77
2022/09/07 06:36:08;;;;;;;7.47;6.47;;;;;;;18.95;77.66;100065.09;10206731;29;20054;-78
2022/09/07 06:41:13;;;;;;;7.13;4.97;;;;;;;19.19;78.54;100062.09;10206185;28;20051;-78
2022/09/07 06:46:36;;;;;;;9.10;5.88;;;;;;;19.34;74.66;100074.88;10191512;28;20425;-76
2022/09/07 06:52:00;;;;;;;7.18;5.45;;;;;;;19.46;74.35;100082.34;10198493;28;20067;-77
2022/09/07 06:57:07;;;;;;;9.07;5.50;;;;;;;19.56;73.04;100090.25;10204045;28;20100;-77
2022/09/07 07:02:12;;;;;;;6.65;5.30;;;;;;;19.74;75.35;100099.91;10192008;28;20440;-77
2022/09/07 07:07:16;;;;;;;7.75;5.22;;;;;;;19.93;70.32;100095.72;10198424;28;20138;-78
2022/09/07 07:12:19;;;;;;;7.95;4.63;;;;;;;20.28;71.01;100096.72;10204093;28;20062;-78
2022/09/07 07:17:21;;;;;;;11.20;4.50;;;;;;;20.57;69.08;100103.97;10179870;28;20043;-77
2022/09/07 07:22:25;;;;;;;14.07;5.40;;;;;;;20.85;69.61;100109.41;10203151;28;20473;-77
2022/09/07 07:27:49;;;;;;;7.50;4.95;;;;;;;21.27;67.83;100115.81;10201948;29;20277;-79
2022/09/07 07:32:52;;;;;;;6.15;3.25;;;;;;;21.21;64.01;100109.28;10214516;29;20047;-78
2022/09/07 07:37:56;;;;;;;5.03;2.90;;;;;;;21.35;68.08;100114.81;10208272;28;20043;-77
2022/09/07 07:43:19;;;;;;;4.72;2.90;;;;;;;21.71;63.56;100111.00;10189683;29;20062;-78
2022/09/07 07:48:22;;;;;;;4.90;3.28;;;;;;;21.53;62.45;100106.94;10206651;29;20095;-77
2022/09/07 07:53:28;;;;;;;9.95;3.45;;;;;;;21.87;65.99;100106.03;10217405;28;20122;-77
2022/09/07 07:58:47;;;;;;;4.32;3.08;;;;;;;21.92;65.32;100113.63;10213793;28;20058;-78
2022/09/07 08:03:50;;;;;;;7.05;3.40;;;;;;;22.22;61.59;100116.03;10189485;28;20048;-77
2022/09/07 08:08:55;;;;;;;4.38;3.42;;;;;;;23.00;61.42;100110.81;10173099;28;20047;-78
2022/09/07 08:14:01;;;;;;;5.82;3.40;;;;;;;24.16;54.85;100100.94;10183783;28;20047;-76
2022/09/07 08:19:04;;;;;;;5.80;3.08;;;;;;;24.45;55.47;100103.09;10198670;29;20051;-77
2022/09/07 08:24:09;;;;;;;4.82;3.42;;;;;;;24.06;55.63;100110.50;10188499;28;20129;-78
2022/09/07 08:29:12;;;;;;;5.30;2.95;;;;;;;23.55;56.45;100125.03;10200064;28;20058;-77
2022/09/07 08:34:15;;;;;;;4.80;2.85;;;;;;;23.01;58.30;100123.47;10208499;28;20123;-77
2022/09/07 08:39:20;;;;;;;4.32;2.88;;;;;;;23.01;57.47;100126.19;10182913;29;20083;-78
2022/09/07 08:44:27;;;;;;;3.47;2.80;;;;;;;22.82;57.46;100124.28;10201662;28;20057;-78
2022/09/07 08:49:38;;;;;;;5.15;2.97;;;;;;;23.78;57.12;100121.84;10184081;29;20071;-78
2022/09/07 08:54:53;;;;;;;3.58;2.10;;;;;;;25.15;54.47;100121.28;10227090;28;21358;-78
2022/09/07 09:00:05;;;;;;;8.30;2.40;;;;;;;24.72;52.35;100135.84;10196577;29;20075;-77
2022/09/07 09:05:20;;;;;;;5.55;2.35;;;;;;;24.67;53.10;100127.41;10171021;28;20055;-77
2022/09/07 09:16:04;;;;;;;3.90;1.70;;;;;;;24.61;52.50;100125.59;10714671;23;20056;-77
2022/09/07 09:27:49;;;;;;;4.10;1.80;;;;;;;25.16;50.94;100131.25;10090592;29;20415;-76
2022/09/07 09:33:13;;;;;;;3.42;1.92;;;;;;;26.00;48.34;100126.03;10070412;29;20056;-77
2022/09/07 09:38:31;;;;;;;3.03;1.90;;;;;;;25.85;48.12;100129.22;10074189;29;20683;-76
2022/09/07 09:43:44;;;;;;;4.57;1.55;;;;;;;24.36;51.06;100142.00;10059918;29;20048;-76
2022/09/07 09:48:56;;;;;;;3.08;1.40;;;;;;;25.34;48.63;100138.66;10042103;29;20048;-77
2022/09/07 09:54:01;;;;;;;;;;;;;;;25.17;48.60;100127.41;10076812;29;20578;-78
2022/09/07 09:59:21;;;;;;;1.60;1.50;;;;;;;25.12;49.77;100143.75;10057603;29;20393;-77
2022/09/07 10:04:45;;;;;;;4.20;2.33;;;;;;;25.35;48.19;100148.59;10068239;29;20052;-77
2022/09/07 10:16:38;;;;;;;2.05;1.20;;;;;;;25.78;47.59;100122.94;10099905;29;20053;-78
2022/09/07 10:21:44;;;;;;;2.38;1.60;;;;;;;26.44;45.87;100126.69;10080762;29;20140;-77
2022/09/07 10:26:47;;;;;;;1.83;1.10;;;;;;;26.33;45.61;100119.25;10038935;29;20132;-79
2022/09/07 10:32:05;;;;;;;1.45;1.27;;;;;;;25.24;46.25;100125.44;10040494;29;20049;-78
2022/09/07 10:37:18;;;;;;;1.95;1.55;;;;;;;25.48;47.21;100120.97;10045302;29;20046;-79
2022/09/07 10:42:27;;;;;;;1.60;1.50;;;;;;;25.84;46.16;100109.13;10049482;29;20053;-81
2022/09/07 10:47:43;;;;;;;1.73;1.52;;;;;;;25.70;45.59;100110.38;10046570;29;20543;-79
2022/09/07 10:52:52;;;;;;;4.78;2.20;;;;;;;25.71;45.89;100119.44;10049591;29;20046;-79
2022/09/07 10:58:09;;;;;;;2.90;2.53;;;;;;;25.54;45.72;100109.03;10052296;29;20073;-78
2022/09/07 11:03:26;;;;;;;2.10;1.90;;;;;;;27.06;44.03;100102.38;10074240;29;20045;-79
2022/09/07 11:08:42;;;;;;;2.60;1.65;;;;;;;26.96;43.32;100099.41;10062028;29;20053;-77
2022/09/07 11:14:11;;;;;;;4.18;1.77;;;;;;;26.63;43.75;100097.16;10054789;29;20411;-79
2022/09/07 11:19:20;;;;;;;1.80;1.70;;;;;;;26.18;45.18;100103.97;10054310;29;20075;-80
2022/09/07 11:24:47;;;;;;;3.55;1.77;;;;;;;27.17;42.69;100098.75;10062940;29;20074;-79
2022/09/07 11:30:19;;;;;;;2.13;1.80;;;;;;;29.23;40.09;100092.41;10054295;29;20495;-80
2022/09/07 11:35:33;;;;;;;1.77;1.67;;;;;;;28.64;40.13;100095.66;10044021;29;20077;-78
2022/09/07 11:40:48;;;;;;;3.78;2.30;;;;;;;28.88;39.58;100087.97;10065247;29;20049;-80
2022/09/07 11:45:54;;;;;;;1.85;1.75;;;;;;;30.10;38.02;100079.66;10034853;29;20062;-80
2022/09/07 11:51:00;;;;;;;4.28;2.45;;;;;;;29.50;38.51;100087.78;10070830;29;20061;-79
2022/09/07 11:56:12;;;;;;;3.80;2.75;;;;;;;27.90;40.38;100084.59;10062258;29;20054;-81
2022/09/07 12:01:21;;;;;;;;;;;;;;;28.97;39.17;100091.19;10062315;29;20041;-80
2022/09/07 12:06:49;;;;;;;6.88;3.20;;;;;;;28.22;39.99;100093.22;10037799;29;19983;-79
2022/09/07 12:12:16;;;;;;;3.70;3.42;;;;;;;30.09;38.45;100067.72;10069357;29;20083;-79
2022/09/07 12:17:33;;;;;;;5.75;5.25;;;;;;;27.39;41.66;100076.06;10048770;29;20088;-81
2022/09/07 12:22:36;;;;;;;5.47;5.05;;;;;;;29.23;39.45;100062.81;10056153;29;20049;-81
2022/09/07 12:27:40;;;;;;;4.95;4.55;;;;;;;28.46;39.78;100063.53;10062128;29;20613;-77
2022/09/07 12:33:05;;;;;;;7.50;4.68;;;;;;;29.67;38.28;100053.69;10058163;29;20053;-80
2022/09/07 12:38:59;;;;;;;3.63;3.30;;;;;;;30.96;35.77;100051.84;10052226;29;20555;-80
2022/09/07 12:44:14;;;;;;;2.92;2.75;;;;;;;32.78;33.53;100054.59;10059726;29;20053;-80
2022/09/07 12:49:34;;;;;;;4.38;4.00;;;;;;;29.83;37.39;100061.09;10059870;29;20073;-79
2022/09/07 12:54:43;;;;;;;7.43;4.00;;;;;;;28.75;39.19;100069.84;10067578;29;20055;-79
2022/09/07 13:00:00;;;;;;;4.10;3.70;;;;;;;29.75;36.84;100062.38;10061654;29;20459;-79
2022/09/07 13:05:16;;;;;;;3.70;3.40;;;;;;;30.64;35.56;100051.91;10058212;29;20064;-80
2022/09/07 13:10:31;;;;;;;4.25;3.85;;;;;;;31.35;34.73;100051.53;10058483;29;20046;-78
2022/09/07 13:15:46;;;;;;;4.72;3.78;;;;;;;30.76;36.01;100048.94;10047070;29;20054;-79
2022/09/07 13:21:34;;;;;;;5.38;3.97;;;;;;;31.36;35.53;100039.31;10051414;29;20124;-79
2022/09/07 13:27:03;;;;;;;5.03;4.63;;;;;;;31.49;34.56;100032.44;10035158;29;20062;-79
2022/09/07 13:32:14;;;;;;;5.35;5.05;;;;;;;30.68;35.62;100036.41;10021591;29;20046;-80
2022/09/07 13:37:21;;;;;;;3.97;3.72;;;;;;;29.23;37.57;100031.56;10050869;29;20075;-79
2022/09/07 13:42:29;;;;;;;3.90;3.70;;;;;;;28.43;38.54;100030.88;10068521;29;20037;-79
2022/09/07 13:47:44;;;;;;;4.05;3.35;;;;;;;28.57;38.85;100029.50;10075645;29;20042;-79
2022/09/07 13:53:02;;;;;;;5.72;4.95;;;;;;;27.26;40.66;100037.72;10059787;29;20053;-78
2022/09/07 13:58:14;;;;;;;4.35;3.92;;;;;;;29.38;37.98;100027.06;10056007;29;20045;-77
2022/09/07 14:03:19;;;;;;;4.88;4.57;;;;;;;29.14;37.60;100032.00;10057715;29;20124;-78
2022/09/07 14:08:25;;;;;;;5.50;5.05;;;;;;;28.73;38.52;100029.72;10051303;29;20121;-79
2022/09/07 14:13:27;;;;;;;5.38;4.97;;;;;;;28.16;39.51;100030.72;10059232;29;20046;-78
2022/09/07 14:18:33;;;;;;;4.90;4.50;;;;;;;27.69;39.27;100029.00;10053841;29;20049;-79
2022/09/07 14:23:38;;;;;;;5.38;4.75;;;;;;;26.26;42.19;100034.84;10043114;29;20117;-80
2022/09/07 14:28:41;;;;;;;5.47;5.07;;;;;;;26.56;42.28;100024.84;10057929;29;20475;-79
2022/09/07 14:33:50;;;;;;;6.32;5.72;;;;;;;27.45;40.93;100032.91;10061899;29;20121;-77
2022/09/07 14:38:53;;;;;;;4.07;3.78;;;;;;;27.54;38.35;100020.44;10062558;29;20496;-77
2022/09/07 14:44:32;;;;;;;3.17;2.90;;;;;;;27.81;37.51;100016.00;10062305;29;20045;-79
2022/09/07 14:49:37;;;;;;;3.30;3.00;;;;;;;26.10;39.53;100024.50;10064988;29;20073;-79
2022/09/07 14:54:40;;;;;;;5.35;3.90;;;;;;;27.06;39.58;100014.16;10063075;29;20090;-79
2022/09/07 14:59:45;;;;;;;4.00;3.70;;;;;;;27.87;38.85;100016.09;10061906;29;20089;-79
2022/09/07 15:05:10;;;;;;;4.60;4.18;;;;;;;28.71;37.46;100017.00;10068846;29;20069;-79
2022/09/07 15:10:15;;;;;;;5.85;5.43;;;;;;;28.70;37.96;100009.81;10055415;29;20057;-80
2022/09/07 15:15:23;;;;;;;5.53;5.00;;;;;;;28.31;39.45;100010.81;10009816;29;1102305;-80
2022/09/07 15:20:41;;;;;;;5.20;4.80;;;;;;;27.57;39.97;100018.03;10047084;29;20101;-78
2022/09/07 15:25:49;;;;;;;5.32;4.93;;;;;;;26.76;41.12;100013.47;10054934;29;20076;-79
2022/09/07 15:30:53;;;;;;;5.25;4.80;;;;;;;27.91;39.43;100008.97;10041529;29;20054;-79
2022/09/07 15:36:18;;;;;;;5.47;5.07;;;;;;;28.82;37.59;100006.09;10053729;29;20054;-79
2022/09/07 15:41:22;;;;;;;5.80;5.00;;;;;;;27.63;40.08;100001.56;10050857;29;20507;-79
2022/09/07 15:46:26;;;;;;;6.00;5.43;;;;;;;27.18;40.91;99998.47;10049391;29;20050;-79
2022/09/07 15:51:31;;;;;;;7.78;5.00;;;;;;;27.51;40.64;100005.22;10046572;29;20053;-80
2022/09/07 15:56:54;;;;;;;6.00;5.40;;;;;;;26.68;41.64;100000.88;10045261;29;20096;-79
2022/09/07 16:02:17;;;;;;;5.00;4.40;;;;;;;26.65;42.48;100004.94;10055286;29;20511;-78
2022/09/07 16:07:41;;;;;;;12.32;6.45;;;;;;;26.33;43.19;99998.09;10027744;29;20061;-78
2022/09/07 16:13:04;;;;;;;5.68;5.05;;;;;;;25.55;44.91;100005.38;10017711;29;20637;-78
2022/09/07 16:18:14;;;;;;;6.22;5.63;;;;;;;25.04;45.28;100007.50;10019087;29;20057;-81
2022/09/07 16:23:21;;;;;;;6.00;5.40;;;;;;;25.37;45.38;100009.84;10039692;29;20067;-80
2022/09/07 16:28:25;;;;;;;5.30;4.80;;;;;;;25.27;45.30;99994.97;10039814;29;20085;-79
2022/09/07 16:33:28;;;;;;;4.65;4.28;;;;;;;25.13;45.88;100000.63;10016625;29;20053;-80
2022/09/07 16:38:41;;;;;;;4.63;4.22;;;;;;;25.10;46.08;99986.53;10007420;29;20050;-81
2022/09/07 16:43:48;;;;;;;4.47;4.13;;;;;;;25.23;45.69;99980.00;10006323;29;20128;-80
2022/09/07 16:48:52;;;;;;;5.72;4.13;;;;;;;24.83;46.26;99992.28;10011484;29;20114;-79
2022/09/07 16:53:57;;;;;;;4.18;3.70;;;;;;;24.37;47.44;99992.69;10016281;29;20194;-81
2022/09/07 16:59:02;;;;;;;6.05;3.78;;;;;;;24.44;47.66;99988.88;10016977;29;20462;-80
2022/09/07 17:04:05;;;;;;;6.07;3.45;;;;;;;24.35;48.03;99979.19;10015734;29;20060;-81
2022/09/07 17:09:14;;;;;;;3.20;3.00;;;;;;;24.18;48.26;99987.16;10012146;29;20053;-80
2022/09/07 17:14:17;;;;;;;2.97;2.78;;;;;;;24.40;47.78;99998.59;10018927;29;20150;-81
2022/09/07 17:19:21;;;;;;;2.65;2.45;;;;;;;24.47;47.28;99987.59;9996436;29;20053;-82
2022/09/07 17:24:33;;;;;;;2.80;2.30;;;;;;;24.59;47.70;99983.00;9973474;29;20050;-81
2022/09/07 17:29:36;;;;;;;3.25;2.00;;;;;;;24.63;47.21;99975.16;10014896;29;20041;-80
2022/09/07 17:34:39;;;;;;;2.63;2.10;;;;;;;24.43;47.90;99981.69;10029912;29;20148;-81
2022/09/07 17:39:43;;;;;;;2.28;2.10;;;;;;;24.15;48.51;100001.31;10011730;29;21226;-82
2022/09/07 17:44:46;;;;;;;4.47;2.00;;;;;;;23.63;48.89;100001.44;10015525;29;20060;-83
2022/09/07 17:49:54;;;;;;;2.50;2.30;;;;;;;23.52;49.83;100009.50;10005053;29;20075;-81
2022/09/07 17:55:01;;;;;;;3.00;2.47;;;;;;;23.08;51.09;100006.50;10028811;29;20057;-80
2022/09/07 18:00:07;;;;;;;2.70;2.50;;;;;;;22.97;51.80;100007.16;10039087;29;20463;-81
2022/09/07 18:05:13;;;;;;;4.00;2.42;;;;;;;22.44;52.62;100007.28;10013450;29;20538;-82
2022/09/07 18:10:18;;;;;;;2.78;2.47;;;;;;;22.43;52.63;100003.66;10020716;29;20739;-80
2022/09/07 18:15:21;;;;;;;3.45;2.30;;;;;;;22.43;52.67;100011.00;10036697;29;20049;-81
2022/09/07 18:20:24;;;;;;;3.22;2.50;;;;;;;22.38;53.29;100002.59;10039401;29;20764;-80
2022/09/07 18:25:29;;;;;;;2.35;2.25;;;;;;;22.36;53.38;100005.56;10012667;29;20065;-81
2022/09/07 18:30:35;;;;;;;4.10;2.30;;;;;;;22.22;53.77;99999.25;10027886;29;20065;-80
2022/09/07 18:35:38;;;;;;;3.20;2.38;;;;;;;22.15;53.91;100005.75;10028135;29;20056;-81
2022/09/07 18:40:42;;;;;;;3.58;2.15;;;;;;;22.04;54.07;100009.94;10007438;29;20067;-81
2022/09/07 18:45:45;;;;;;;3.35;2.35;;;;;;;22.03;54.00;100011.84;10012699;29;20063;-81
2022/09/07 18:50:53;;;;;;;2.60;2.35;;;;;;;21.95;54.26;100006.56;9982449;29;20056;-81
2022/09/07 18:56:03;;;;;;;2.40;1.80;;;;;;;21.62;54.59;100001.03;10006279;29;20113;-81
2022/09/07 19:01:07;;;;;;;2.10;2.00;;;;;;;21.50;55.42;100005.38;10003916;29;20057;-82
2022/09/07 19:06:12;;;;;;;3.83;2.03;;;;;;;21.43;55.19;100006.22;10021500;29;20061;-81
2022/09/07 19:11:19;;;;;;;2.83;2.10;;;;;;;21.28;55.58;100010.97;10043561;29;20091;-80
2022/09/07 19:16:22;;;;;;;2.42;2.20;;;;;;;21.16;55.85;100005.25;10038793;29;20078;-80
2022/09/07 19:21:29;;;;;;;3.97;2.15;;;;;;;21.14;56.01;100001.88;10032361;29;20163;-81
2022/09/07 19:26:35;;;;;;;4.28;2.30;;;;;;;21.12;56.08;100001.25;10017608;29;20403;-80
2022/09/07 19:31:38;;;;;;;3.92;2.35;;;;;;;21.04;56.45;100009.63;10027621;29;20060;-80
2022/09/07 19:36:41;;;;;;;2.75;2.30;;;;;;;20.97;56.63;100009.53;10029157;29;20097;-80
2022/09/07 19:41:45;;;;;;;2.65;2.35;;;;;;;20.99;56.55;100007.44;10022164;29;20057;-80
2022/09/07 19:46:48;;;;;;;2.95;2.58;;;;;;;20.93;57.05;100013.72;10025341;29;20072;-80
2022/09/07 19:51:51;;;;;;;5.65;2.90;;;;;;;20.85;56.87;100010.31;10025972;29;20065;-80
2022/09/07 19:56:56;;;;;;;3.50;2.80;;;;;;;20.59;57.81;100000.91;10026258;29;20136;-80
2022/09/07 20:01:58;;;;;;;3.45;2.60;;;;;;;20.64;57.96;99998.41;10027764;29;20514;-80
2022/09/07 20:07:02;;;;;;;2.88;2.60;;;;;;;20.59;58.03;99994.59;10021824;29;20057;-80
2022/09/07 20:12:09;;;;;;;5.65;3.13;;;;;;;20.51;58.38;99996.44;10034800;29;20527;-80
2022/09/07 20:17:12;;;;;;;3.50;3.17;;;;;;;20.56;58.44;99976.75;10027210;29;20223;-80
2022/09/07 20:22:15;;;;;;;3.47;3.17;;;;;;;20.48;58.78;99985.09;10027407;29;20132;-80
2022/09/07 20:27:19;;;;;;;3.85;3.25;;;;;;;20.38;58.88;99971.81;10023858;29;20059;-81
2022/09/07 20:32:23;;;;;;;3.80;3.50;;;;;;;20.31;59.37;99963.56;10039032;29;20146;-79
2022/09/07 20:37:26;;;;;;;3.83;3.42;;;;;;;20.25;59.50;99963.50;10038247;29;20128;-80
2022/09/07 20:42:31;;;;;;;3.65;3.35;;;;;;;20.26;59.55;99962.44;10024069;29;20046;-81
2022/09/07 20:47:34;;;;;;;4.32;3.92;;;;;;;20.12;59.92;99965.06;10024116;29;20054;-80
2022/09/07 20:52:37;;;;;;;5.57;4.20;;;;;;;20.04;60.41;99967.91;10024605;29;20692;-79
2022/09/07 20:57:41;;;;;;;4.97;4.53;;;;;;;19.99;60.44;99954.03;10002930;29;20513;-81
2022/09/07 21:02:44;;;;;;;5.28;4.63;;;;;;;19.85;60.44;99946.78;10002123;29;21311;-81
2022/09/07 21:07:47;;;;;;;8.02;4.97;;;;;;;19.77;60.88;99941.47;10020520;29;20050;-81
2022/09/07 21:12:52;;;;;;;6.30;5.38;;;;;;;19.74;60.97;99944.59;10034640;29;20073;-81
2022/09/07 21:17:54;;;;;;;9.40;5.68;;;;;;;19.66;60.99;99942.81;10009864;29;20071;-80
2022/09/07 21:22:57;;;;;;;7.47;6.30;;;;;;;19.70;60.95;99948.75;9998009;29;20126;-81
2022/09/07 21:28:02;;;;;;;7.75;6.13;;;;;;;19.73;60.81;99942.91;10011637;29;20150;-81
2022/09/07 21:33:05;;;;;;;6.72;6.13;;;;;;;19.65;60.85;99947.44;10022975;29;20159;-81
2022/09/07 21:38:08;;;;;;;6.68;6.07;;;;;;;19.62;60.96;99941.53;10005839;29;20436;-81
2022/09/07 21:43:12;;;;;;;8.40;5.30;;;;;;;19.56;61.35;99951.34;10012929;29;20060;-82
2022/09/07 21:48:15;;;;;;;7.07;6.13;;;;;;;19.44;61.78;99944.66;10005941;29;20070;-80
2022/09/07 21:53:18;;;;;;;6.90;6.20;;;;;;;19.43;61.82;99949.28;9983611;29;20050;-80
2022/09/07 21:58:22;;;;;;;7.10;6.45;;;;;;;19.29;62.29;99952.91;10007310;29;20064;-80
2022/09/07 22:03:25;;;;;;;6.38;5.63;;;;;;;19.22;62.31;99960.13;10001943;29;21195;-79
2022/09/07 22:08:28;;;;;;;5.60;5.00;;;;;;;19.14;62.69;99947.50;10004519;29;20054;-81
2022/09/07 22:13:32;;;;;;;6.07;5.45;;;;;;;18.98;63.23;99943.09;10015471;29;20057;-79
2022/09/07 22:18:36;;;;;;;6.50;5.85;;;;;;;18.92;63.82;99937.56;10027728;29;20060;-80
2022/09/07 22:23:41;;;;;;;5.88;5.38;;;;;;;18.90;63.78;99940.50;10012859;29;20057;-80
2022/09/07 22:28:45;;;;;;;5.82;5.32;;;;;;;18.92;63.90;99948.44;9993139;29;20045;-81
2022/09/07 22:33:49;;;;;;;6.60;5.70;;;;;;;18.83;63.93;99946.88;10019851;29;20054;-80
2022/09/07 22:38:54;;;;;;;6.68;5.75;;;;;;;18.67;64.33;99937.81;10036918;29;20065;-80
2022/09/07 22:43:59;;;;;;;6.13;5.53;;;;;;;18.57;64.43;99945.44;10020762;29;20046;-81
2022/09/07 22:49:02;;;;;;;6.30;5.22;;;;;;;18.46;64.50;99935.88;9989435;29;20054;-81
2022/09/07 22:54:05;;;;;;;8.23;5.03;;;;;;;18.42;64.64;99923.66;10010695;29;20057;-81
2022/09/07 22:59:11;;;;;;;6.30;5.40;;;;;;;18.41;64.86;99926.59;10003057;29;20095;-79
2022/09/07 23:04:14;;;;;;;7.82;5.57;;;;;;;18.34;65.28;99915.59;9994199;29;20054;-80
2022/09/07 23:09:19;;;;;;;6.32;5.55;;;;;;;18.30;65.59;99915.13;10003643;29;20065;-80
2022/09/07 23:14:23;;;;;;;7.85;5.93;;;;;;;18.25;65.64;99914.00;10020076;29;20058;-81
2022/09/07 23:19:26;;;;;;;7.45;6.15;;;;;;;17.93;67.03;99913.25;10013765;29;20187;-80
2022/09/07 23:24:30;;;;;;;7.25;6.60;;;;;;;17.96;66.92;99907.44;10018852;29;20057;-79
2022/09/07 23:29:34;;;;;;;6.18;5.57;;;;;;;17.88;66.57;99899.38;10002767;29;20064;-80
2022/09/07 23:34:37;;;;;;;9.27;6.78;;;;;;;17.82;66.81;99892.81;9992611;29;20053;-79
2022/09/07 23:39:40;;;;;;;7.38;5.72;;;;;;;17.76;66.84;99881.84;9991952;29;20507;-80
2022/09/07 23:44:47;;;;;;;7.70;6.90;;;;;;;17.82;66.97;99878.38;10029455;29;20064;-80
2022/09/07 23:49:50;;;;;;;10.38;7.28;;;;;;;17.80;66.62;99865.00;10019301;29;20144;-80
2022/09/07 23:54:52;;;;;;;7.55;6.53;;;;;;;17.76;66.62;99871.81;9987803;29;20053;-80
2022/09/07 23:59:56;;;;;;;7.72;7.00;;;;;;;17.69;67.21;99852.69;10002077;29;20511;-80
